sensor_id;sensor_type;location;lat;lon;timestamp;temperature;humidity
27890;DHT22;15238;49.082;9.102;2023-10-19T00:01:04;11.20;99.90
27890;DHT22;15238;49.082;9.102;2023-10-19T00:03:05;11.10;99.90
27890;DHT22;15238;49.082;9.102;2023-10-19T00:05:09;11.20;99.90
27890;DHT22;15238;49.082;9.102;2023-10-19T00:07:09;11.20;99.90
27890;DHT22;15238;49.082;9.102;2023-10-19T00:09:16;11.20;99.90
27890;DHT22;15238;49.082;9.102;2023-10-19T00:11:16;11.20;99.90
27890;DHT22;15238;49.082;9.102;2023-10-19T00:13:24;11.20;99.90
27890;DHT22;15238;49.082;9.102;2023-10-19T00:15:25;11.10;99.90
27890;DHT22;15238;49.082;9.102;2023-10-19T00:17:28;11.20;99.90
27890;DHT22;15238;49.082;9.102;2023-10-19T00:19:30;11.20;99.90
27890;DHT22;15238;49.082;9.102;2023-10-19T00:21:31;11.20;99.90
27890;DHT22;15238;49.082;9.102;2023-10-19T00:23:51;11.20;99.90
27890;DHT22;15238;49.082;9.102;2023-10-19T00:25:57;11.20;99.90
27890;DHT22;15238;49.082;9.102;2023-10-19T00:27:57;11.20;99.90
27890;DHT22;15238;49.082;9.102;2023-10-19T00:30:00;11.20;99.90
27890;DHT22;15238;49.082;9.102;2023-10-19T00:32:06;11.20;99.90
27890;DHT22;15238;49.082;9.102;2023-10-19T00:34:13;11.20;99.90
27890;DHT22;15238;49.082;9.102;2023-10-19T00:36:14;11.20;99.90
27890;DHT22;15238;49.082;9.102;2023-10-19T00:38:14;11.20;99.90
27890;DHT22;15238;49.082;9.102;2023-10-19T00:40:38;11.20;99.90
27890;DHT22;15238;49.082;9.102;2023-10-19T00:42:41;11.20;99.90
27890;DHT22;15238;49.082;9.102;2023-10-19T00:44:46;11.20;99.90
27890;DHT22;15238;49.082;9.102;2023-10-19T00:46:50;11.20;99.90
27890;DHT22;15238;49.082;9.102;2023-10-19T00:49:02;11.20;99.90
27890;DHT22;15238;49.082;9.102;2023-10-19T00:51:06;11.20;99.90
27890;DHT22;15238;49.082;9.102;2023-10-19T00:53:37;11.20;99.90
27890;DHT22;15238;49.082;9.102;2023-10-19T00:55:38;11.20;99.90
27890;DHT22;15238;49.082;9.102;2023-10-19T00:57:40;11.20;99.90
27890;DHT22;15238;49.082;9.102;2023-10-19T00:59:47;11.20;99.90
27890;DHT22;15238;49.082;9.102;2023-10-19T01:01:54;11.20;99.90
27890;DHT22;15238;49.082;9.102;2023-10-19T01:03:58;11.20;99.90
27890;DHT22;15238;49.082;9.102;2023-10-19T01:05:59;11.20;99.90
27890;DHT22;15238;49.082;9.102;2023-10-19T01:08:00;11.20;99.90
27890;DHT22;15238;49.082;9.102;2023-10-19T01:10:04;11.20;99.90
27890;DHT22;15238;49.082;9.102;2023-10-19T01:12:06;11.30;99.90
27890;DHT22;15238;49.082;9.102;2023-10-19T01:14:25;11.30;99.90
27890;DHT22;15238;49.082;9.102;2023-10-19T01:16:28;11.30;99.90
27890;DHT22;15238;49.082;9.102;2023-10-19T01:18:28;11.30;99.90
27890;DHT22;15238;49.082;9.102;2023-10-19T01:20:31;11.30;99.90
27890;DHT22;15238;49.082;9.102;2023-10-19T01:22:31;11.30;99.90
27890;DHT22;15238;49.082;9.102;2023-10-19T01:24:32;11.30;99.90
27890;DHT22;15238;49.082;9.102;2023-10-19T01:26:41;11.30;99.90
27890;DHT22;15238;49.082;9.102;2023-10-19T01:28:42;11.40;99.90
27890;DHT22;15238;49.082;9.102;2023-10-19T01:30:51;11.40;99.90
27890;DHT22;15238;49.082;9.102;2023-10-19T01:32:51;11.40;99.90
27890;DHT22;15238;49.082;9.102;2023-10-19T01:34:52;11.40;99.90
27890;DHT22;15238;49.082;9.102;2023-10-19T01:36:52;11.40;99.90
27890;DHT22;15238;49.082;9.102;2023-10-19T01:38:56;11.40;99.90
27890;DHT22;15238;49.082;9.102;2023-10-19T01:41:02;11.40;99.90
27890;DHT22;15238;49.082;9.102;2023-10-19T01:43:07;11.40;99.90
27890;DHT22;15238;49.082;9.102;2023-10-19T01:45:08;11.50;99.90
27890;DHT22;15238;49.082;9.102;2023-10-19T01:47:11;11.50;99.90
27890;DHT22;15238;49.082;9.102;2023-10-19T01:49:12;11.50;99.90
27890;DHT22;15238;49.082;9.102;2023-10-19T01:51:12;11.50;99.90
27890;DHT22;15238;49.082;9.102;2023-10-19T01:53:17;11.50;99.90
27890;DHT22;15238;49.082;9.102;2023-10-19T01:55:17;11.50;99.90
27890;DHT22;15238;49.082;9.102;2023-10-19T01:57:21;11.50;99.90
27890;DHT22;15238;49.082;9.102;2023-10-19T01:59:26;11.50;99.90
27890;DHT22;15238;49.082;9.102;2023-10-19T02:01:27;11.60;99.90
27890;DHT22;15238;49.082;9.102;2023-10-19T02:03:28;11.60;99.90
27890;DHT22;15238;49.082;9.102;2023-10-19T02:05:28;11.60;99.90
27890;DHT22;15238;49.082;9.102;2023-10-19T02:07:39;11.60;99.90
27890;DHT22;15238;49.082;9.102;2023-10-19T02:09:40;11.50;99.90
27890;DHT22;15238;49.082;9.102;2023-10-19T02:11:40;11.50;99.90
27890;DHT22;15238;49.082;9.102;2023-10-19T02:13:46;11.50;99.90
27890;DHT22;15238;49.082;9.102;2023-10-19T02:15:47;11.50;99.90
27890;DHT22;15238;49.082;9.102;2023-10-19T02:17:47;11.50;99.90
27890;DHT22;15238;49.082;9.102;2023-10-19T02:19:49;11.50;99.90
27890;DHT22;15238;49.082;9.102;2023-10-19T02:21:55;11.60;99.90
27890;DHT22;15238;49.082;9.102;2023-10-19T02:23:58;11.60;99.90
27890;DHT22;15238;49.082;9.102;2023-10-19T02:25:59;11.60;99.90
27890;DHT22;15238;49.082;9.102;2023-10-19T02:28:00;11.70;99.90
27890;DHT22;15238;49.082;9.102;2023-10-19T02:30:00;11.70;99.90
27890;DHT22;15238;49.082;9.102;2023-10-19T02:32:01;11.70;99.90
27890;DHT22;15238;49.082;9.102;2023-10-19T02:34:07;11.70;99.90
27890;DHT22;15238;49.082;9.102;2023-10-19T02:36:09;11.70;99.90
27890;DHT22;15238;49.082;9.102;2023-10-19T02:38:13;11.70;99.90
27890;DHT22;15238;49.082;9.102;2023-10-19T02:40:13;11.70;99.90
27890;DHT22;15238;49.082;9.102;2023-10-19T02:42:20;11.70;99.90
27890;DHT22;15238;49.082;9.102;2023-10-19T02:44:23;11.80;99.90
27890;DHT22;15238;49.082;9.102;2023-10-19T02:46:25;11.80;99.90
27890;DHT22;15238;49.082;9.102;2023-10-19T02:48:26;11.70;99.90
27890;DHT22;15238;49.082;9.102;2023-10-19T02:50:26;11.70;99.90
27890;DHT22;15238;49.082;9.102;2023-10-19T02:52:26;11.80;99.90
27890;DHT22;15238;49.082;9.102;2023-10-19T02:54:27;11.70;99.90
27890;DHT22;15238;49.082;9.102;2023-10-19T02:56:33;11.80;99.90
27890;DHT22;15238;49.082;9.102;2023-10-19T02:58:36;11.70;99.90
27890;DHT22;15238;49.082;9.102;2023-10-19T03:00:37;11.80;99.90
27890;DHT22;15238;49.082;9.102;2023-10-19T03:02:40;11.80;99.90
27890;DHT22;15238;49.082;9.102;2023-10-19T03:04:41;11.80;99.90
27890;DHT22;15238;49.082;9.102;2023-10-19T03:06:43;11.80;99.90
27890;DHT22;15238;49.082;9.102;2023-10-19T03:08:44;11.80;99.90
27890;DHT22;15238;49.082;9.102;2023-10-19T03:10:46;11.80;99.90
27890;DHT22;15238;49.082;9.102;2023-10-19T03:12:47;11.80;99.90
27890;DHT22;15238;49.082;9.102;2023-10-19T03:14:47;11.80;99.90
27890;DHT22;15238;49.082;9.102;2023-10-19T03:16:48;11.80;99.90
27890;DHT22;15238;49.082;9.102;2023-10-19T03:18:50;11.80;99.90
27890;DHT22;15238;49.082;9.102;2023-10-19T03:20:51;11.70;99.90
27890;DHT22;15238;49.082;9.102;2023-10-19T03:22:51;11.70;99.90
27890;DHT22;15238;49.082;9.102;2023-10-19T03:24:52;11.80;99.90
27890;DHT22;15238;49.082;9.102;2023-10-19T03:27:24;11.80;99.90
27890;DHT22;15238;49.082;9.102;2023-10-19T03:29:25;11.80;99.90
27890;DHT22;15238;49.082;9.102;2023-10-19T03:31:31;11.80;99.90
27890;DHT22;15238;49.082;9.102;2023-10-19T03:33:33;11.80;99.90
27890;DHT22;15238;49.082;9.102;2023-10-19T03:35:37;11.80;99.90
27890;DHT22;15238;49.082;9.102;2023-10-19T03:37:43;11.80;99.90
27890;DHT22;15238;49.082;9.102;2023-10-19T03:39:48;11.80;99.90
27890;DHT22;15238;49.082;9.102;2023-10-19T03:41:49;11.80;99.90
27890;DHT22;15238;49.082;9.102;2023-10-19T03:43:54;11.80;99.90
27890;DHT22;15238;49.082;9.102;2023-10-19T03:45:56;11.80;99.90
27890;DHT22;15238;49.082;9.102;2023-10-19T03:47:59;11.80;99.90
27890;DHT22;15238;49.082;9.102;2023-10-19T03:50:07;11.80;99.90
27890;DHT22;15238;49.082;9.102;2023-10-19T03:52:08;11.80;99.90
27890;DHT22;15238;49.082;9.102;2023-10-19T03:54:08;11.80;99.90
27890;DHT22;15238;49.082;9.102;2023-10-19T03:56:22;11.80;99.90
27890;DHT22;15238;49.082;9.102;2023-10-19T03:58:24;11.80;99.90
27890;DHT22;15238;49.082;9.102;2023-10-19T04:00:24;11.80;99.90
27890;DHT22;15238;49.082;9.102;2023-10-19T04:02:25;11.80;99.90
27890;DHT22;15238;49.082;9.102;2023-10-19T04:04:29;11.80;99.90
27890;DHT22;15238;49.082;9.102;2023-10-19T04:06:30;11.80;99.90
27890;DHT22;15238;49.082;9.102;2023-10-19T04:08:30;11.70;99.90
27890;DHT22;15238;49.082;9.102;2023-10-19T04:10:35;11.70;99.90
27890;DHT22;15238;49.082;9.102;2023-10-19T04:12:39;11.70;99.90
27890;DHT22;15238;49.082;9.102;2023-10-19T04:14:44;11.70;99.90
27890;DHT22;15238;49.082;9.102;2023-10-19T04:16:44;11.70;99.90
27890;DHT22;15238;49.082;9.102;2023-10-19T04:18:45;11.70;99.90
27890;DHT22;15238;49.082;9.102;2023-10-19T04:20:45;11.70;99.90
27890;DHT22;15238;49.082;9.102;2023-10-19T04:22:55;11.70;99.90
27890;DHT22;15238;49.082;9.102;2023-10-19T04:24:57;11.70;99.90
27890;DHT22;15238;49.082;9.102;2023-10-19T04:27:00;11.70;99.90
27890;DHT22;15238;49.082;9.102;2023-10-19T04:29:01;11.70;99.90
27890;DHT22;15238;49.082;9.102;2023-10-19T04:31:10;11.60;99.90
27890;DHT22;15238;49.082;9.102;2023-10-19T04:33:14;11.50;99.90
27890;DHT22;15238;49.082;9.102;2023-10-19T04:35:17;11.50;99.90
27890;DHT22;15238;49.082;9.102;2023-10-19T04:37:23;11.40;99.90
27890;DHT22;15238;49.082;9.102;2023-10-19T04:39:24;11.40;99.90
27890;DHT22;15238;49.082;9.102;2023-10-19T04:41:25;11.40;99.90
27890;DHT22;15238;49.082;9.102;2023-10-19T04:43:27;11.40;99.90
27890;DHT22;15238;49.082;9.102;2023-10-19T04:45:28;11.40;99.90
27890;DHT22;15238;49.082;9.102;2023-10-19T04:47:30;11.40;99.90
27890;DHT22;15238;49.082;9.102;2023-10-19T04:49:30;11.40;99.90
27890;DHT22;15238;49.082;9.102;2023-10-19T04:51:30;11.30;99.90
27890;DHT22;15238;49.082;9.102;2023-10-19T04:53:31;11.30;99.90
27890;DHT22;15238;49.082;9.102;2023-10-19T04:55:32;11.30;99.90
27890;DHT22;15238;49.082;9.102;2023-10-19T04:57:34;11.40;99.90
27890;DHT22;15238;49.082;9.102;2023-10-19T04:59:35;11.30;99.90
27890;DHT22;15238;49.082;9.102;2023-10-19T05:01:35;11.30;99.90
27890;DHT22;15238;49.082;9.102;2023-10-19T05:03:37;11.30;99.90
27890;DHT22;15238;49.082;9.102;2023-10-19T05:05:38;11.30;99.90
27890;DHT22;15238;49.082;9.102;2023-10-19T05:07:38;11.40;99.90
27890;DHT22;15238;49.082;9.102;2023-10-19T05:09:39;11.40;99.90
27890;DHT22;15238;49.082;9.102;2023-10-19T05:11:40;11.40;99.90
27890;DHT22;15238;49.082;9.102;2023-10-19T05:13:40;11.40;99.90
27890;DHT22;15238;49.082;9.102;2023-10-19T05:15:41;11.50;99.90
27890;DHT22;15238;49.082;9.102;2023-10-19T05:17:43;11.50;99.90
27890;DHT22;15238;49.082;9.102;2023-10-19T05:19:43;11.50;99.90
27890;DHT22;15238;49.082;9.102;2023-10-19T05:21:44;11.50;99.90
27890;DHT22;15238;49.082;9.102;2023-10-19T05:23:45;11.50;99.90
27890;DHT22;15238;49.082;9.102;2023-10-19T05:25:45;11.60;99.90
27890;DHT22;15238;49.082;9.102;2023-10-19T05:27:46;11.60;99.90
27890;DHT22;15238;49.082;9.102;2023-10-19T05:29:46;11.50;99.90
27890;DHT22;15238;49.082;9.102;2023-10-19T05:31:47;11.50;99.90
27890;DHT22;15238;49.082;9.102;2023-10-19T05:33:48;11.60;99.90
27890;DHT22;15238;49.082;9.102;2023-10-19T05:35:51;11.50;99.90
27890;DHT22;15238;49.082;9.102;2023-10-19T05:37:52;11.50;99.90
27890;DHT22;15238;49.082;9.102;2023-10-19T05:39:53;11.50;99.90
27890;DHT22;15238;49.082;9.102;2023-10-19T05:41:54;11.40;99.90
27890;DHT22;15238;49.082;9.102;2023-10-19T05:43:55;11.40;99.90
27890;DHT22;15238;49.082;9.102;2023-10-19T05:45:55;11.40;99.90
27890;DHT22;15238;49.082;9.102;2023-10-19T05:47:57;11.40;99.90
27890;DHT22;15238;49.082;9.102;2023-10-19T05:49:57;11.30;99.90
27890;DHT22;15238;49.082;9.102;2023-10-19T05:51:58;11.20;99.90
27890;DHT22;15238;49.082;9.102;2023-10-19T05:53:59;11.20;99.90
27890;DHT22;15238;49.082;9.102;2023-10-19T05:56:03;11.20;99.90
27890;DHT22;15238;49.082;9.102;2023-10-19T05:58:04;11.20;99.90
27890;DHT22;15238;49.082;9.102;2023-10-19T06:00:05;11.20;99.90
27890;DHT22;15238;49.082;9.102;2023-10-19T06:02:06;11.20;99.90
27890;DHT22;15238;49.082;9.102;2023-10-19T06:04:07;11.20;99.90
27890;DHT22;15238;49.082;9.102;2023-10-19T06:06:08;11.10;99.90
27890;DHT22;15238;49.082;9.102;2023-10-19T06:08:08;11.10;99.90
27890;DHT22;15238;49.082;9.102;2023-10-19T06:10:17;11.00;99.90
27890;DHT22;15238;49.082;9.102;2023-10-19T06:12:18;11.00;99.90
27890;DHT22;15238;49.082;9.102;2023-10-19T06:14:19;11.00;99.90
27890;DHT22;15238;49.082;9.102;2023-10-19T06:16:19;11.00;99.90
27890;DHT22;15238;49.082;9.102;2023-10-19T06:18:21;11.00;99.90
27890;DHT22;15238;49.082;9.102;2023-10-19T06:20:22;11.00;99.90
27890;DHT22;15238;49.082;9.102;2023-10-19T06:22:26;11.00;99.90
27890;DHT22;15238;49.082;9.102;2023-10-19T06:24:28;11.00;99.90
27890;DHT22;15238;49.082;9.102;2023-10-19T06:26:29;11.00;99.90
27890;DHT22;15238;49.082;9.102;2023-10-19T06:28:29;11.00;99.90
27890;DHT22;15238;49.082;9.102;2023-10-19T06:30:34;11.00;99.90
27890;DHT22;15238;49.082;9.102;2023-10-19T06:32:35;11.00;99.90
27890;DHT22;15238;49.082;9.102;2023-10-19T06:34:35;11.10;99.90
27890;DHT22;15238;49.082;9.102;2023-10-19T06:36:36;11.10;99.90
27890;DHT22;15238;49.082;9.102;2023-10-19T06:38:36;11.10;99.90
27890;DHT22;15238;49.082;9.102;2023-10-19T06:40:37;11.20;99.90
27890;DHT22;15238;49.082;9.102;2023-10-19T06:42:38;11.20;99.90
27890;DHT22;15238;49.082;9.102;2023-10-19T06:44:38;11.30;99.90
27890;DHT22;15238;49.082;9.102;2023-10-19T06:46:39;11.40;99.90
27890;DHT22;15238;49.082;9.102;2023-10-19T06:48:40;11.40;99.90
27890;DHT22;15238;49.082;9.102;2023-10-19T06:50:40;11.40;99.90
27890;DHT22;15238;49.082;9.102;2023-10-19T06:52:42;11.50;99.90
27890;DHT22;15238;49.082;9.102;2023-10-19T06:54:43;11.40;99.90
27890;DHT22;15238;49.082;9.102;2023-10-19T06:56:43;11.50;99.90
27890;DHT22;15238;49.082;9.102;2023-10-19T06:58:45;11.50;99.90
27890;DHT22;15238;49.082;9.102;2023-10-19T07:00:46;11.60;99.90
27890;DHT22;15238;49.082;9.102;2023-10-19T07:02:57;11.60;99.90
27890;DHT22;15238;49.082;9.102;2023-10-19T07:05:00;11.70;99.90
27890;DHT22;15238;49.082;9.102;2023-10-19T07:07:01;11.80;99.90
27890;DHT22;15238;49.082;9.102;2023-10-19T07:09:01;11.90;99.90
27890;DHT22;15238;49.082;9.102;2023-10-19T07:11:04;11.90;99.90
27890;DHT22;15238;49.082;9.102;2023-10-19T07:13:05;12.00;99.90
27890;DHT22;15238;49.082;9.102;2023-10-19T07:15:06;12.10;99.90
27890;DHT22;15238;49.082;9.102;2023-10-19T07:17:07;12.20;99.90
27890;DHT22;15238;49.082;9.102;2023-10-19T07:19:08;12.30;99.90
27890;DHT22;15238;49.082;9.102;2023-10-19T07:21:09;12.30;99.90
27890;DHT22;15238;49.082;9.102;2023-10-19T07:23:10;12.40;99.90
27890;DHT22;15238;49.082;9.102;2023-10-19T07:25:18;12.40;99.90
27890;DHT22;15238;49.082;9.102;2023-10-19T07:27:21;12.40;99.90
27890;DHT22;15238;49.082;9.102;2023-10-19T07:29:23;12.40;99.90
27890;DHT22;15238;49.082;9.102;2023-10-19T07:31:23;12.50;99.90
27890;DHT22;15238;49.082;9.102;2023-10-19T07:33:24;12.50;99.90
27890;DHT22;15238;49.082;9.102;2023-10-19T07:35:25;12.40;99.90
27890;DHT22;15238;49.082;9.102;2023-10-19T07:37:26;12.50;99.90
27890;DHT22;15238;49.082;9.102;2023-10-19T07:39:29;12.50;99.90
27890;DHT22;15238;49.082;9.102;2023-10-19T07:41:30;12.50;99.90
27890;DHT22;15238;49.082;9.102;2023-10-19T07:43:36;12.60;99.90
27890;DHT22;15238;49.082;9.102;2023-10-19T07:45:37;12.70;99.90
27890;DHT22;15238;49.082;9.102;2023-10-19T07:47:39;12.70;99.90
27890;DHT22;15238;49.082;9.102;2023-10-19T07:49:42;12.80;99.90
27890;DHT22;15238;49.082;9.102;2023-10-19T07:51:49;12.90;99.90
27890;DHT22;15238;49.082;9.102;2023-10-19T07:53:51;13.00;99.90
27890;DHT22;15238;49.082;9.102;2023-10-19T07:55:52;13.00;99.90
27890;DHT22;15238;49.082;9.102;2023-10-19T07:57:53;13.00;99.90
27890;DHT22;15238;49.082;9.102;2023-10-19T07:59:54;13.10;99.90
27890;DHT22;15238;49.082;9.102;2023-10-19T08:01:56;13.20;99.90
27890;DHT22;15238;49.082;9.102;2023-10-19T08:03:57;13.30;99.90
27890;DHT22;15238;49.082;9.102;2023-10-19T08:05:57;13.40;99.90
27890;DHT22;15238;49.082;9.102;2023-10-19T08:07:58;13.50;99.90
27890;DHT22;15238;49.082;9.102;2023-10-19T08:10:00;13.60;99.90
27890;DHT22;15238;49.082;9.102;2023-10-19T08:12:02;13.60;99.90
27890;DHT22;15238;49.082;9.102;2023-10-19T08:14:05;13.70;99.90
27890;DHT22;15238;49.082;9.102;2023-10-19T08:16:06;13.80;99.90
27890;DHT22;15238;49.082;9.102;2023-10-19T08:18:07;13.90;99.90
27890;DHT22;15238;49.082;9.102;2023-10-19T08:20:10;13.90;99.90
27890;DHT22;15238;49.082;9.102;2023-10-19T08:22:16;14.00;99.90
27890;DHT22;15238;49.082;9.102;2023-10-19T08:24:16;14.20;99.90
27890;DHT22;15238;49.082;9.102;2023-10-19T08:26:21;14.40;99.90
27890;DHT22;15238;49.082;9.102;2023-10-19T08:28:21;14.50;99.90
27890;DHT22;15238;49.082;9.102;2023-10-19T08:30:23;14.70;99.90
27890;DHT22;15238;49.082;9.102;2023-10-19T08:32:24;14.90;99.90
27890;DHT22;15238;49.082;9.102;2023-10-19T08:34:25;15.10;99.90
27890;DHT22;15238;49.082;9.102;2023-10-19T08:36:26;15.30;99.90
27890;DHT22;15238;49.082;9.102;2023-10-19T08:38:28;15.50;99.90
27890;DHT22;15238;49.082;9.102;2023-10-19T08:40:29;15.60;99.90
27890;DHT22;15238;49.082;9.102;2023-10-19T08:42:29;15.70;99.90
27890;DHT22;15238;49.082;9.102;2023-10-19T08:44:31;15.70;99.90
27890;DHT22;15238;49.082;9.102;2023-10-19T08:46:32;15.70;99.90
27890;DHT22;15238;49.082;9.102;2023-10-19T08:48:36;15.80;99.90
27890;DHT22;15238;49.082;9.102;2023-10-19T08:50:37;15.70;99.90
27890;DHT22;15238;49.082;9.102;2023-10-19T08:52:38;15.70;99.90
27890;DHT22;15238;49.082;9.102;2023-10-19T08:54:39;15.70;99.90
27890;DHT22;15238;49.082;9.102;2023-10-19T08:56:43;15.70;99.90
27890;DHT22;15238;49.082;9.102;2023-10-19T08:58:44;15.70;99.90
27890;DHT22;15238;49.082;9.102;2023-10-19T09:00:50;15.80;99.90
27890;DHT22;15238;49.082;9.102;2023-10-19T09:02:57;15.90;99.90
27890;DHT22;15238;49.082;9.102;2023-10-19T09:04:57;16.00;99.90
27890;DHT22;15238;49.082;9.102;2023-10-19T09:07:00;16.20;99.90
27890;DHT22;15238;49.082;9.102;2023-10-19T09:09:00;16.40;99.90
27890;DHT22;15238;49.082;9.102;2023-10-19T09:11:08;16.50;99.90
27890;DHT22;15238;49.082;9.102;2023-10-19T09:13:20;16.50;99.90
27890;DHT22;15238;49.082;9.102;2023-10-19T09:15:22;16.50;99.90
27890;DHT22;15238;49.082;9.102;2023-10-19T09:17:29;16.70;99.90
27890;DHT22;15238;49.082;9.102;2023-10-19T09:19:44;16.70;99.90
27890;DHT22;15238;49.082;9.102;2023-10-19T09:21:45;16.80;99.90
27890;DHT22;15238;49.082;9.102;2023-10-19T09:23:46;16.80;99.90
27890;DHT22;15238;49.082;9.102;2023-10-19T09:25:49;16.80;99.90
27890;DHT22;15238;49.082;9.102;2023-10-19T09:27:50;16.90;99.90
27890;DHT22;15238;49.082;9.102;2023-10-19T09:29:52;17.00;99.90
27890;DHT22;15238;49.082;9.102;2023-10-19T09:31:53;17.10;99.90
27890;DHT22;15238;49.082;9.102;2023-10-19T09:33:57;17.20;99.90
27890;DHT22;15238;49.082;9.102;2023-10-19T09:36:00;17.20;99.90
27890;DHT22;15238;49.082;9.102;2023-10-19T09:38:01;17.30;99.90
27890;DHT22;15238;49.082;9.102;2023-10-19T09:40:05;17.20;99.90
27890;DHT22;15238;49.082;9.102;2023-10-19T09:42:11;17.20;99.90
27890;DHT22;15238;49.082;9.102;2023-10-19T09:44:19;17.20;99.90
27890;DHT22;15238;49.082;9.102;2023-10-19T09:46:27;17.30;99.90
27890;DHT22;15238;49.082;9.102;2023-10-19T09:48:29;17.30;99.90
27890;DHT22;15238;49.082;9.102;2023-10-19T09:50:35;17.30;99.90
27890;DHT22;15238;49.082;9.102;2023-10-19T09:52:37;17.30;99.90
27890;DHT22;15238;49.082;9.102;2023-10-19T09:56:50;17.40;99.90
27890;DHT22;15238;49.082;9.102;2023-10-19T09:59:02;17.60;99.90
27890;DHT22;15238;49.082;9.102;2023-10-19T10:01:05;17.70;99.90
27890;DHT22;15238;49.082;9.102;2023-10-19T10:03:43;17.80;99.90
27890;DHT22;15238;49.082;9.102;2023-10-19T10:07:44;17.90;99.90
27890;DHT22;15238;49.082;9.102;2023-10-19T10:09:45;17.90;99.90
27890;DHT22;15238;49.082;9.102;2023-10-19T10:11:49;17.90;99.90
27890;DHT22;15238;49.082;9.102;2023-10-19T10:13:50;18.00;99.90
27890;DHT22;15238;49.082;9.102;2023-10-19T10:15:55;18.10;99.90
27890;DHT22;15238;49.082;9.102;2023-10-19T10:17:55;18.10;99.90
27890;DHT22;15238;49.082;9.102;2023-10-19T10:22:15;18.10;99.90
27890;DHT22;15238;49.082;9.102;2023-10-19T10:24:16;18.00;99.90
27890;DHT22;15238;49.082;9.102;2023-10-19T10:26:19;17.90;99.90
27890;DHT22;15238;49.082;9.102;2023-10-19T10:28:20;17.90;99.90
27890;DHT22;15238;49.082;9.102;2023-10-19T10:30:23;17.90;99.90
27890;DHT22;15238;49.082;9.102;2023-10-19T10:32:49;17.90;99.90
27890;DHT22;15238;49.082;9.102;2023-10-19T10:34:54;17.90;99.90
27890;DHT22;15238;49.082;9.102;2023-10-19T10:37:03;17.90;99.90
27890;DHT22;15238;49.082;9.102;2023-10-19T10:39:04;17.90;99.90
27890;DHT22;15238;49.082;9.102;2023-10-19T10:41:22;17.90;99.90
27890;DHT22;15238;49.082;9.102;2023-10-19T10:43:22;17.90;99.90
27890;DHT22;15238;49.082;9.102;2023-10-19T10:45:23;17.90;99.90
27890;DHT22;15238;49.082;9.102;2023-10-19T10:47:24;17.90;99.90
27890;DHT22;15238;49.082;9.102;2023-10-19T10:49:24;17.90;99.90
27890;DHT22;15238;49.082;9.102;2023-10-19T10:51:27;18.00;99.90
27890;DHT22;15238;49.082;9.102;2023-10-19T10:53:29;17.90;99.90
27890;DHT22;15238;49.082;9.102;2023-10-19T10:55:29;17.90;99.90
27890;DHT22;15238;49.082;9.102;2023-10-19T10:57:31;17.90;99.90
27890;DHT22;15238;49.082;9.102;2023-10-19T10:59:32;17.90;99.90
27890;DHT22;15238;49.082;9.102;2023-10-19T11:01:33;17.80;99.90
27890;DHT22;15238;49.082;9.102;2023-10-19T11:03:34;17.80;99.90
27890;DHT22;15238;49.082;9.102;2023-10-19T11:05:34;17.90;99.90
27890;DHT22;15238;49.082;9.102;2023-10-19T11:07:49;17.90;99.90
27890;DHT22;15238;49.082;9.102;2023-10-19T11:10:02;17.90;99.90
27890;DHT22;15238;49.082;9.102;2023-10-19T11:12:11;18.00;99.90
27890;DHT22;15238;49.082;9.102;2023-10-19T11:14:12;18.00;99.90
27890;DHT22;15238;49.082;9.102;2023-10-19T11:16:22;18.00;99.90
27890;DHT22;15238;49.082;9.102;2023-10-19T11:18:40;18.10;99.90
27890;DHT22;15238;49.082;9.102;2023-10-19T11:20:41;18.10;99.90
27890;DHT22;15238;49.082;9.102;2023-10-19T11:22:52;18.10;99.90
27890;DHT22;15238;49.082;9.102;2023-10-19T11:24:54;18.10;99.90
27890;DHT22;15238;49.082;9.102;2023-10-19T11:26:54;18.10;99.90
27890;DHT22;15238;49.082;9.102;2023-10-19T11:29:02;18.00;99.90
27890;DHT22;15238;49.082;9.102;2023-10-19T11:31:18;18.00;99.90
27890;DHT22;15238;49.082;9.102;2023-10-19T11:33:18;18.00;99.90
27890;DHT22;15238;49.082;9.102;2023-10-19T11:35:25;17.90;99.90
27890;DHT22;15238;49.082;9.102;2023-10-19T11:37:26;17.80;99.90
27890;DHT22;15238;49.082;9.102;2023-10-19T11:39:27;17.80;99.90
27890;DHT22;15238;49.082;9.102;2023-10-19T11:41:28;17.70;99.90
27890;DHT22;15238;49.082;9.102;2023-10-19T11:43:30;17.60;99.90
27890;DHT22;15238;49.082;9.102;2023-10-19T11:45:31;17.40;99.90
27890;DHT22;15238;49.082;9.102;2023-10-19T11:47:32;17.30;99.90
27890;DHT22;15238;49.082;9.102;2023-10-19T11:49:32;17.20;99.90
27890;DHT22;15238;49.082;9.102;2023-10-19T11:51:33;17.20;99.90
27890;DHT22;15238;49.082;9.102;2023-10-19T11:53:35;17.10;99.90
27890;DHT22;15238;49.082;9.102;2023-10-19T11:55:36;17.10;99.90
27890;DHT22;15238;49.082;9.102;2023-10-19T11:57:37;17.10;99.90
27890;DHT22;15238;49.082;9.102;2023-10-19T11:59:37;17.10;99.90
27890;DHT22;15238;49.082;9.102;2023-10-19T12:01:38;17.20;99.90
27890;DHT22;15238;49.082;9.102;2023-10-19T12:03:39;17.10;99.90
27890;DHT22;15238;49.082;9.102;2023-10-19T12:05:41;17.20;99.90
27890;DHT22;15238;49.082;9.102;2023-10-19T12:07:42;17.20;99.90
27890;DHT22;15238;49.082;9.102;2023-10-19T12:09:45;17.20;99.90
27890;DHT22;15238;49.082;9.102;2023-10-19T12:11:45;17.10;99.90
27890;DHT22;15238;49.082;9.102;2023-10-19T12:13:46;17.00;99.90
27890;DHT22;15238;49.082;9.102;2023-10-19T12:15:47;17.00;99.90
27890;DHT22;15238;49.082;9.102;2023-10-19T12:17:55;17.00;99.90
27890;DHT22;15238;49.082;9.102;2023-10-19T12:19:56;16.90;99.90
27890;DHT22;15238;49.082;9.102;2023-10-19T12:21:57;16.90;99.90
27890;DHT22;15238;49.082;9.102;2023-10-19T12:23:57;16.80;99.90
27890;DHT22;15238;49.082;9.102;2023-10-19T12:25:59;16.80;99.90
27890;DHT22;15238;49.082;9.102;2023-10-19T12:28:04;16.80;99.90
27890;DHT22;15238;49.082;9.102;2023-10-19T12:30:05;16.70;99.90
27890;DHT22;15238;49.082;9.102;2023-10-19T12:32:17;16.70;99.90
27890;DHT22;15238;49.082;9.102;2023-10-19T12:34:17;16.70;99.90
27890;DHT22;15238;49.082;9.102;2023-10-19T12:36:18;16.70;99.90
27890;DHT22;15238;49.082;9.102;2023-10-19T12:38:27;16.60;99.90
27890;DHT22;15238;49.082;9.102;2023-10-19T12:40:28;16.60;99.90
27890;DHT22;15238;49.082;9.102;2023-10-19T12:42:31;16.60;99.90
27890;DHT22;15238;49.082;9.102;2023-10-19T12:44:34;16.60;99.90
27890;DHT22;15238;49.082;9.102;2023-10-19T12:46:39;16.60;99.90
27890;DHT22;15238;49.082;9.102;2023-10-19T12:48:41;16.60;99.90
27890;DHT22;15238;49.082;9.102;2023-10-19T12:50:42;16.60;99.90
27890;DHT22;15238;49.082;9.102;2023-10-19T12:52:43;16.60;99.90
27890;DHT22;15238;49.082;9.102;2023-10-19T12:54:43;16.70;99.90
27890;DHT22;15238;49.082;9.102;2023-10-19T12:56:48;16.70;99.90
27890;DHT22;15238;49.082;9.102;2023-10-19T12:58:50;16.60;99.90
27890;DHT22;15238;49.082;9.102;2023-10-19T13:00:50;16.60;99.90
27890;DHT22;15238;49.082;9.102;2023-10-19T13:02:52;16.70;99.90